createdAt,value
2023-04-02T00:01:17.952Z,98126.16
2023-04-02T00:04:13.001Z,98137.34
2023-04-02T00:06:40.316Z,98135.75
2023-04-02T00:09:25.836Z,98135.31
2023-04-02T00:11:53.422Z,98141.38
2023-04-02T00:14:25.399Z,98146.81
2023-04-02T00:16:52.405Z,98147.13
2023-04-02T00:19:24.701Z,98161.84
2023-04-02T00:21:51.952Z,98166.66
2023-04-02T00:24:21.888Z,98170.25
2023-04-02T00:26:51.131Z,98175.88
2023-04-02T00:29:18.833Z,98177.66
2023-04-02T00:31:49.286Z,98182.84
2023-04-02T00:34:20.081Z,98180.66
2023-04-02T00:36:47.873Z,98186.41
2023-04-02T00:39:19.581Z,98186.94
2023-04-02T00:41:46.530Z,98186.00
2023-04-02T00:44:14.583Z,98197.81
2023-04-02T00:46:43.974Z,98201.53
2023-04-02T00:49:19.714Z,98197.91
2023-04-02T00:51:49.543Z,98205.91
2023-04-02T00:54:20.923Z,98214.53
2023-04-02T00:56:51.709Z,98210.56
2023-04-02T00:59:24.900Z,98216.16
2023-04-02T01:01:53.449Z,98226.56
2023-04-02T01:04:30.620Z,98225.13
2023-04-02T01:06:58.072Z,98232.47
2023-04-02T01:09:38.142Z,98232.66
2023-04-02T01:12:41.341Z,98238.41
2023-04-02T01:15:12.615Z,98236.81
2023-04-02T01:17:51.564Z,98250.19
2023-04-02T01:20:51.905Z,98257.06
2023-04-02T01:23:24.808Z,98258.50
2023-04-02T01:25:58.067Z,98266.13
2023-04-02T01:28:27.966Z,98275.72
2023-04-02T01:30:57.276Z,98276.47
2023-04-02T01:33:30.174Z,98279.38
2023-04-02T01:36:05.423Z,98285.59
2023-04-02T01:38:37.731Z,98289.09
2023-04-02T01:41:11.058Z,98291.63
2023-04-02T01:43:46.417Z,98308.19
2023-04-02T01:46:28.142Z,98314.09
2023-04-02T01:48:55.176Z,98315.88
2023-04-02T01:51:30.957Z,98329.88
2023-04-02T01:54:00.528Z,98338.34
2023-04-02T01:56:28.567Z,98335.47
2023-04-02T01:58:56.702Z,98347.72
2023-04-02T02:01:28.375Z,98348.53
2023-04-02T02:03:55.089Z,98352.66
2023-04-02T02:06:23.424Z,98358.22
2023-04-02T02:08:53.600Z,98366.66
2023-04-02T02:11:22.789Z,98367.28
2023-04-02T02:13:53.381Z,98377.97
2023-04-02T02:16:20.769Z,98376.38
2023-04-02T02:18:51.631Z,98392.41
2023-04-02T02:21:32.222Z,98387.66
2023-04-02T02:24:00.112Z,98390.50
2023-04-02T02:26:29.408Z,98397.03
2023-04-02T02:28:57.664Z,98405.28
2023-04-02T02:31:29.376Z,98417.81
2023-04-02T02:34:02.212Z,98413.06
2023-04-02T02:36:34.983Z,98427.19
2023-04-02T02:39:04.915Z,98433.53
2023-04-02T02:41:37.480Z,98441.78
2023-04-02T02:44:11.050Z,98451.31
2023-04-02T02:46:40.870Z,98446.84
2023-04-02T02:49:15.296Z,98452.88
2023-04-02T02:51:45.105Z,98461.28
2023-04-02T02:54:13.166Z,98467.34
2023-04-02T02:56:46.479Z,98473.66
2023-04-02T02:59:15.245Z,98479.38
2023-04-02T03:01:43.354Z,98484.63
2023-04-02T03:04:11.704Z,98486.31
2023-04-02T03:06:39.565Z,98492.34
2023-04-02T03:09:16.646Z,98496.97
2023-04-02T03:11:49.552Z,98503.47
2023-04-02T03:14:23.210Z,98508.38
2023-04-02T03:16:54.762Z,98510.09
2023-04-02T03:19:31.399Z,98513.09
2023-04-02T03:22:05.778Z,98516.44
2023-04-02T03:24:37.450Z,98524.84
2023-04-02T03:27:11.555Z,98526.56
2023-04-02T03:29:42.250Z,98536.09
2023-04-02T03:32:16.685Z,98541.50
2023-04-02T03:34:49.303Z,98539.41
2023-04-02T03:37:22.020Z,98542.25
2023-04-02T03:39:54.419Z,98553.63
2023-04-02T03:42:22.519Z,98553.94
2023-04-02T03:44:53.175Z,98566.94
2023-04-02T03:47:27.897Z,98571.97
2023-04-02T03:50:01.227Z,98575.97
2023-04-02T03:52:29.659Z,98578.16
2023-04-02T03:54:58.971Z,98584.16
2023-04-02T03:57:31.892Z,98586.69
2023-04-02T04:00:02.713Z,98593.19
2023-04-02T04:02:38.515Z,98594.59
2023-04-02T04:05:18.813Z,98606.31
2023-04-02T04:07:45.757Z,98609.59
2023-04-02T04:10:19.342Z,98615.28
2023-04-02T04:12:48.348Z,98624.63
2023-04-02T04:15:19.899Z,98623.81
2023-04-02T04:17:52.840Z,98629.50
2023-04-02T04:20:24.100Z,98633.59
2023-04-02T04:22:51.223Z,98642.13
2023-04-02T04:25:21.462Z,98651.31
2023-04-02T04:27:57.987Z,98654.28
2023-04-02T04:30:28.853Z,98664.59
2023-04-02T04:32:58.718Z,98672.69
2023-04-02T04:35:30.733Z,98668.19
2023-04-02T04:38:01.126Z,98675.78
2023-04-02T04:40:31.473Z,98681.00
2023-04-02T04:43:03.134Z,98681.47
2023-04-02T04:45:39.066Z,98689.56
2023-04-02T04:48:10.755Z,98691.06
2023-04-02T04:50:46.182Z,98700.84
2023-04-02T04:53:16.665Z,98703.34
2023-04-02T04:55:44.703Z,98714.41
2023-04-02T04:58:18.764Z,98712.34
2023-04-02T05:00:55.867Z,98721.00
2023-04-02T05:03:30.014Z,98718.59
2023-04-02T05:06:05.843Z,98732.38
2023-04-02T05:08:36.748Z,98736.50
2023-04-02T05:11:06.977Z,98740.75
2023-04-02T05:13:39.746Z,98744.56
2023-04-02T05:16:16.794Z,98754.84
2023-04-02T05:18:47.262Z,98763.81
2023-04-02T05:21:21.870Z,98763.00
2023-04-02T05:23:53.971Z,98772.97
2023-04-02T05:26:24.276Z,98772.97
2023-04-02T05:28:57.275Z,98783.28
2023-04-02T05:31:27.907Z,98783.84
2023-04-02T05:33:55.809Z,98787.41
2023-04-02T05:36:26.287Z,98800.59
2023-04-02T05:38:53.977Z,98793.94
2023-04-02T05:41:25.586Z,98807.88
2023-04-02T05:44:03.240Z,98820.56
2023-04-02T05:46:35.252Z,98815.69
2023-04-02T05:49:08.357Z,98820.25
2023-04-02T05:51:41.696Z,98827.34
2023-04-02T05:54:17.957Z,98828.94
2023-04-02T05:56:50.235Z,98849.91
2023-04-02T05:59:21.751Z,98839.94
2023-04-02T06:01:53.089Z,98853.69
2023-04-02T06:04:26.635Z,98852.59
2023-04-02T06:07:01.047Z,98855.28
2023-04-02T06:09:36.662Z,98870.66
2023-04-02T06:12:19.802Z,98869.78
2023-04-02T06:14:46.778Z,98877.25
2023-04-02T06:17:15.208Z,98879.75
2023-04-02T06:19:42.077Z,98887.84
2023-04-02T06:22:20.152Z,98896.78
2023-04-02T06:24:52.318Z,98899.47
2023-04-02T06:27:21.103Z,98913.75
2023-04-02T06:29:50.204Z,98919.75
2023-04-02T06:32:16.701Z,98921.66
2023-04-02T06:34:43.542Z,98927.31
2023-04-02T06:37:19.614Z,98933.50
2023-04-02T06:39:46.164Z,98941.06
2023-04-02T06:42:17.425Z,98943.78
2023-04-02T06:44:44.435Z,98950.75
2023-04-02T06:47:23.082Z,98956.94
2023-04-02T06:49:56.740Z,98966.13
2023-04-02T06:52:29.037Z,98967.78
2023-04-02T06:54:55.662Z,98986.63
2023-04-02T06:57:22.318Z,98986.16
2023-04-02T06:59:49.591Z,98992.19
2023-04-02T07:02:33.403Z,98988.44
2023-04-02T07:05:04.088Z,98999.59
2023-04-02T07:07:32.074Z,99010.41
2023-04-02T07:09:58.840Z,99013.38
2023-04-02T07:12:26.350Z,99019.56
2023-04-02T07:14:53.198Z,99021.41
2023-04-02T07:17:20.607Z,99035.09
2023-04-02T07:19:47.693Z,99033.19
2023-04-02T07:22:14.397Z,99036.41
2023-04-02T07:24:42.333Z,99041.78
2023-04-02T07:27:09.981Z,99051.19
2023-04-02T07:29:36.544Z,99054.41
2023-04-02T07:32:03.108Z,99058.38
2023-04-02T07:34:29.640Z,99057.78
2023-04-02T07:36:56.305Z,99065.34
2023-04-02T07:39:22.816Z,99071.03
2023-04-02T07:41:55.974Z,99080.72
2023-04-02T07:44:22.801Z,99095.84
2023-04-02T07:46:49.381Z,99086.66
2023-04-02T07:49:15.981Z,99099.69
2023-04-02T07:51:42.544Z,99104.78
2023-04-02T07:54:09.144Z,99105.31
2023-04-02T07:56:36.406Z,99121.47
2023-04-02T07:59:05.068Z,99119.00
2023-04-02T08:01:31.682Z,99118.34
2023-04-02T08:03:58.378Z,99126.50
2023-04-02T08:06:25.693Z,99132.47
2023-04-02T08:08:52.640Z,99138.91
2023-04-02T08:11:19.301Z,99146.44
2023-04-02T08:13:46.422Z,99150.75
2023-04-02T08:16:14.366Z,99150.00
2023-04-02T08:18:41.072Z,99150.78
2023-04-02T08:21:08.928Z,99159.69
2023-04-02T08:23:35.797Z,99172.41
2023-04-02T08:26:02.870Z,99179.16
2023-04-02T08:28:29.641Z,99178.41
2023-04-02T08:30:56.324Z,99187.84
2023-04-02T08:33:24.710Z,99183.53
2023-04-02T08:35:51.491Z,99201.59
2023-04-02T08:38:20.276Z,99201.59
2023-04-02T08:40:49.756Z,99215.13
2023-04-02T08:43:30.523Z,99211.28
2023-04-02T08:46:06.367Z,99218.53
2023-04-02T08:48:40.170Z,99223.59
2023-04-02T08:51:14.470Z,99222.03
2023-04-02T08:53:41.134Z,99237.13
2023-04-02T08:56:11.077Z,99238.75
2023-04-02T08:58:40.890Z,99246.53
2023-04-02T09:01:11.976Z,99247.81
2023-04-02T09:03:45.012Z,99243.47
2023-04-02T09:06:16.760Z,99260.72
2023-04-02T09:08:44.883Z,99261.22
2023-04-02T09:11:22.304Z,99271.41
2023-04-02T09:13:54.116Z,99266.25
2023-04-02T09:16:33.835Z,99275.09
2023-04-02T09:19:02.037Z,99282.59
2023-04-02T09:21:37.057Z,99283.06
2023-04-02T09:24:04.718Z,99285.47
2023-04-02T09:26:33.266Z,99296.81
2023-04-02T09:29:20.189Z,99293.84
2023-04-02T09:31:51.172Z,99308.41
2023-04-02T09:34:30.791Z,99299.50
2023-04-02T09:37:07.153Z,99314.53
2023-04-02T09:39:33.950Z,99314.03
2023-04-02T09:42:06.128Z,99316.13
2023-04-02T09:44:33.273Z,99325.84
2023-04-02T09:47:01.768Z,99327.50
2023-04-02T09:49:32.209Z,99334.19
2023-04-02T09:52:25.948Z,99327.88
2023-04-02T09:55:17.868Z,99334.31
2023-04-02T09:57:46.033Z,99341.84
2023-04-02T10:00:30.594Z,99336.63
2023-04-02T10:03:04.906Z,99355.31
2023-04-02T10:08:09.929Z,99362.31
2023-04-02T10:10:40.596Z,99368.75
2023-04-02T10:13:13.311Z,99366.63
2023-04-02T10:15:44.315Z,99382.03
2023-04-02T10:18:15.908Z,99385.59
2023-04-02T10:20:51.423Z,99396.94
2023-04-02T10:23:19.638Z,99386.69
2023-04-02T10:25:51.551Z,99392.81
2023-04-02T10:28:28.893Z,99399.53
2023-04-02T10:31:03.467Z,99403.38
2023-04-02T10:33:35.813Z,99409.28
2023-04-02T10:36:10.126Z,99407.09
2023-04-02T10:38:43.724Z,99413.22
2023-04-02T10:41:22.312Z,99411.31
2023-04-02T10:44:21.676Z,99416.72
2023-04-02T10:46:56.037Z,99424.81
2023-04-02T10:49:32.251Z,99430.16
2023-04-02T10:52:05.523Z,99423.66
2023-04-02T10:54:39.747Z,99433.16
2023-04-02T10:57:12.574Z,99443.06
2023-04-02T10:59:43.881Z,99439.78
2023-04-02T11:02:30.611Z,99452.91
2023-04-02T11:05:02.134Z,99451.56
2023-04-02T11:07:35.624Z,99459.56
2023-04-02T11:10:02.594Z,99458.00
2023-04-02T11:12:41.783Z,99466.19
2023-04-02T11:15:16.107Z,99466.28
2023-04-02T11:17:43.053Z,99478.81
2023-04-02T11:20:47.284Z,99484.00
2023-04-02T11:23:18.505Z,99479.91
2023-04-02T11:25:46.894Z,99478.19
2023-04-02T11:28:25.066Z,99480.13
2023-04-02T11:30:51.883Z,99497.69
2023-04-02T11:33:44.092Z,99488.56
2023-04-02T11:36:48.395Z,99492.69
2023-04-02T11:39:46.737Z,99491.00
2023-04-02T11:42:32.246Z,99500.19
2023-04-02T11:45:01.957Z,99501.53
2023-04-02T11:47:30.064Z,99505.13
2023-04-02T11:49:59.704Z,99507.53
2023-04-02T11:52:29.458Z,99508.69
2023-04-02T11:55:01.308Z,99518.88
2023-04-02T11:58:01.949Z,99522.84
2023-04-02T12:00:57.700Z,99533.50
2023-04-02T12:03:44.862Z,99539.22
2023-04-02T12:06:23.455Z,99547.88
2023-04-02T12:09:02.699Z,99545.47
2023-04-02T12:11:36.486Z,99545.41
2023-04-02T12:14:27.569Z,99552.69
2023-04-02T12:16:54.428Z,99557.28
2023-04-02T12:19:22.094Z,99563.22
2023-04-02T12:21:51.164Z,99573.75
2023-04-02T12:24:21.186Z,99576.66
2023-04-02T12:26:49.551Z,99578.31
2023-04-02T12:29:27.365Z,99590.22
2023-04-02T12:31:55.045Z,99592.69
2023-04-02T12:34:23.901Z,99596.16
2023-04-02T12:36:56.088Z,99602.63
2023-04-02T12:39:24.666Z,99598.53
2023-04-02T12:41:55.335Z,99605.38
2023-04-02T12:44:23.314Z,99598.59
2023-04-02T12:46:51.152Z,99599.06
2023-04-02T12:49:29.308Z,99599.03
2023-04-02T12:51:56.697Z,99610.31
2023-04-02T12:54:24.504Z,99604.38
2023-04-02T12:56:51.412Z,99612.09
2023-04-02T12:59:28.291Z,99614.00
2023-04-02T13:01:56.416Z,99623.13
2023-04-02T13:04:23.071Z,99617.13
2023-04-02T13:06:52.199Z,99626.00
2023-04-02T13:09:34.508Z,99628.63
2023-04-02T13:12:01.677Z,99627.94
2023-04-02T13:14:30.702Z,99619.78
2023-04-02T13:16:57.412Z,99622.59
2023-04-02T13:19:27.998Z,99629.03
2023-04-02T13:21:55.740Z,99626.75
2023-04-02T13:24:24.246Z,99622.41
2023-04-02T13:26:54.258Z,99632.38
2023-04-02T13:29:24.825Z,99627.25
2023-04-02T13:31:55.059Z,99636.06
2023-04-02T13:34:21.818Z,99633.75
2023-04-02T13:36:48.606Z,99638.22
2023-04-02T13:39:15.580Z,99636.75
2023-04-02T13:41:44.178Z,99642.16
2023-04-02T13:44:23.089Z,99648.38
2023-04-02T13:46:50.554Z,99642.47
2023-04-02T13:49:18.792Z,99644.09
2023-04-02T13:51:47.016Z,99641.03
2023-04-02T13:54:21.675Z,99645.44
2023-04-02T13:56:48.618Z,99654.94
2023-04-02T13:59:15.595Z,99656.00
2023-04-02T14:01:45.351Z,99657.31
2023-04-02T14:04:16.891Z,99659.97
2023-04-02T14:07:06.720Z,99662.38
2023-04-02T14:09:42.944Z,99660.25
2023-04-02T14:12:20.188Z,99656.13
2023-04-02T14:15:03.737Z,99665.22
2023-04-02T14:17:41.164Z,99662.19
2023-04-02T14:20:25.144Z,99676.59
2023-04-02T14:23:21.606Z,99679.88
2023-04-02T14:26:01.189Z,99686.84
2023-04-02T14:28:35.410Z,99684.53
2023-04-02T14:31:10.625Z,99686.66
2023-04-02T14:33:49.446Z,99692.13
2023-04-02T14:36:23.861Z,99684.31
2023-04-02T14:38:55.728Z,99684.47
2023-04-02T14:41:32.457Z,99693.63
2023-04-02T14:44:01.884Z,99691.44
2023-04-02T14:46:30.997Z,99699.63
2023-04-02T14:49:01.459Z,99708.66
2023-04-02T14:51:34.645Z,99703.69
2023-04-02T14:54:09.364Z,99709.72
2023-04-02T14:56:45.321Z,99711.44
2023-04-02T14:59:23.733Z,99713.84
2023-04-02T15:01:55.358Z,99724.38
2023-04-02T15:04:28.430Z,99720.13
2023-04-02T15:07:01.687Z,99718.50
2023-04-02T15:09:31.782Z,99720.41
2023-04-02T15:12:03.834Z,99725.81
2023-04-02T15:14:35.037Z,99734.75
2023-04-02T15:17:01.635Z,99727.03
2023-04-02T15:19:28.213Z,99746.56
2023-04-02T15:22:24.887Z,99744.75
2023-04-02T15:25:01.122Z,99747.50
2023-04-02T15:27:45.484Z,99746.47
2023-04-02T15:30:15.012Z,99748.63
2023-04-02T15:32:42.912Z,99750.53
2023-04-02T15:35:31.350Z,99755.13
2023-04-02T15:38:01.537Z,99761.63
2023-04-02T15:40:56.701Z,99764.34
2023-04-02T15:43:30.253Z,99770.50
2023-04-02T15:46:09.153Z,99775.16
2023-04-02T15:48:59.943Z,99777.03
2023-04-02T15:51:36.755Z,99780.31
2023-04-02T15:54:12.640Z,99777.63
2023-04-02T15:56:47.979Z,99773.84
2023-04-02T15:59:53.115Z,99777.63
2023-04-02T16:02:40.191Z,99779.72
2023-04-02T16:05:18.720Z,99781.34
2023-04-02T16:08:17.976Z,99784.63
2023-04-02T16:10:44.809Z,99789.22
2023-04-02T16:13:17.898Z,99790.91
2023-04-02T16:15:51.067Z,99802.25
2023-04-02T16:18:30.544Z,99798.25
2023-04-02T16:21:01.259Z,99804.19
2023-04-02T16:23:31.664Z,99806.34
2023-04-02T16:26:06.694Z,99818.78
2023-04-02T16:28:39.898Z,99820.41
2023-04-02T16:31:13.875Z,99822.28
2023-04-02T16:33:56.697Z,99830.41
2023-04-02T16:36:34.378Z,99832.03
2023-04-02T16:39:05.650Z,99832.03
2023-04-02T16:41:47.737Z,99830.94
2023-04-02T16:44:22.854Z,99841.47
2023-04-02T16:47:01.305Z,99831.50
2023-04-02T16:49:37.461Z,99834.72
2023-04-02T16:52:17.954Z,99835.53
2023-04-02T16:54:49.592Z,99839.03
2023-04-02T16:57:27.541Z,99848.50
2023-04-02T17:00:04.044Z,99842.28
2023-04-02T17:02:41.154Z,99847.13
2023-04-02T17:05:26.954Z,99849.56
2023-04-02T17:08:03.006Z,99857.41
2023-04-02T17:10:32.455Z,99856.59
2023-04-02T17:13:08.821Z,99862.25
2023-04-02T17:15:38.462Z,99862.81
2023-04-02T17:18:16.164Z,99869.81
2023-04-02T17:20:45.845Z,99879.53
2023-04-02T17:23:13.636Z,99875.22
2023-04-02T17:25:47.612Z,99874.94
2023-04-02T17:28:19.372Z,99885.44
2023-04-02T17:30:49.258Z,99885.97
2023-04-02T17:33:18.617Z,99890.31
2023-04-02T17:36:02.933Z,99891.38
2023-04-02T17:38:39.705Z,99893.53
2023-04-02T17:41:15.277Z,99900.25
2023-04-02T17:43:48.669Z,99897.06
2023-04-02T17:46:24.265Z,99899.75
2023-04-02T17:48:59.688Z,99897.56
2023-04-02T17:51:38.606Z,99905.13
2023-04-02T17:54:22.804Z,99916.16
2023-04-02T17:57:10.271Z,99917.78
2023-04-02T17:59:51.085Z,99920.22
2023-04-02T18:02:34.326Z,99911.84
2023-04-02T18:05:09.682Z,99923.19
2023-04-02T18:07:49.682Z,99922.09
2023-04-02T18:10:24.950Z,99921.56
2023-04-02T18:12:56.235Z,99926.66
2023-04-02T18:15:58.380Z,99933.66
2023-04-02T18:18:37.798Z,99937.97
2023-04-02T18:21:13.429Z,99931.50
2023-04-02T18:23:54.589Z,99936.88
2023-04-02T18:26:32.657Z,99935.00
2023-04-02T18:29:07.288Z,99937.16
2023-04-02T18:31:42.753Z,99934.19
2023-04-02T18:34:50.933Z,99936.84
2023-04-02T18:37:22.981Z,99940.91
2023-04-02T18:40:15.858Z,99945.75
2023-04-02T18:42:51.836Z,99947.09
2023-04-02T18:45:24.542Z,99951.94
2023-04-02T18:48:01.673Z,99958.41
2023-04-02T18:50:31.721Z,99970.81
2023-04-02T18:52:58.371Z,99978.63
2023-04-02T18:55:29.512Z,99980.22
2023-04-02T18:58:00.749Z,99979.44
2023-04-02T19:00:30.501Z,99987.22
2023-04-02T19:03:03.350Z,99988.34
2023-04-02T19:05:38.891Z,99986.97
2023-04-02T19:08:14.005Z,99985.34
2023-04-02T19:10:45.152Z,99993.97
2023-04-02T19:13:15.882Z,99997.75
2023-04-02T19:15:58.120Z,99997.22
2023-04-02T19:18:36.416Z,100005.56
2023-04-02T19:21:12.808Z,99997.75
2023-04-02T19:23:58.108Z,100003.13
2023-04-02T19:26:34.904Z,100004.19
2023-04-02T19:29:08.532Z,100007.72
2023-04-02T19:31:47.537Z,100004.72
2023-04-02T19:34:22.177Z,100012.81
2023-04-02T19:36:51.468Z,100010.09
2023-04-02T19:39:53.606Z,100017.66
2023-04-02T19:42:34.294Z,100008.22
2023-04-02T19:45:02.657Z,100014.97
2023-04-02T19:47:29.261Z,100010.09
2023-04-02T19:50:06.980Z,100019.81
2023-04-02T19:52:33.520Z,100018.75
2023-04-02T19:55:00.084Z,100019.00
2023-04-02T19:57:28.133Z,100024.13
2023-04-02T19:59:54.889Z,100021.19
2023-04-02T20:02:21.500Z,100024.69
2023-04-02T20:04:48.210Z,100031.94
2023-04-02T20:07:15.259Z,100041.41
2023-04-02T20:09:42.234Z,100030.31
2023-04-02T20:12:08.786Z,100031.41
2023-04-02T20:14:36.705Z,100040.03
2023-04-02T20:17:03.499Z,100040.03
2023-04-02T20:19:30.102Z,100046.75
2023-04-02T20:21:56.646Z,100056.44
2023-04-02T20:24:23.317Z,100056.44
2023-04-02T20:26:49.948Z,100052.44
2023-04-02T20:29:16.646Z,100058.13
2023-04-02T20:31:44.535Z,100056.75
2023-04-02T20:34:11.223Z,100061.88
2023-04-02T20:36:38.026Z,100061.88
2023-04-02T20:39:07.024Z,100066.19
2023-04-02T20:41:33.634Z,100066.19
2023-04-02T20:44:00.461Z,100073.16
2023-04-02T20:46:27.134Z,100077.75
2023-04-02T20:48:55.193Z,100074.78
2023-04-02T20:51:22.008Z,100079.94
2023-04-02T20:53:48.769Z,100069.41
2023-04-02T20:56:16.431Z,100082.88
2023-04-02T20:58:43.710Z,100087.72
2023-04-02T21:01:19.580Z,100082.31
2023-04-02T21:03:46.642Z,100085.00
2023-04-02T21:06:15.962Z,100079.06
2023-04-02T21:08:42.906Z,100082.59
2023-04-02T21:11:10.066Z,100089.03
2023-04-02T21:13:37.204Z,100093.63
2023-04-02T21:16:04.964Z,100091.47
2023-04-02T21:18:31.854Z,100095.47
2023-04-02T21:21:00.630Z,100101.69
2023-04-02T21:23:29.081Z,100090.91
2023-04-02T21:25:57.767Z,100091.22
2023-04-02T21:28:24.999Z,100085.25
2023-04-02T21:30:51.708Z,100092.78
2023-04-02T21:33:18.395Z,100098.47
2023-04-02T21:35:45.017Z,100100.91
2023-04-02T21:38:11.601Z,100104.69
2023-04-02T21:40:39.600Z,100100.09
2023-04-02T21:43:06.183Z,100108.44
2023-04-02T21:45:32.779Z,100108.44
2023-04-02T21:47:59.937Z,100110.56
2023-04-02T21:50:26.544Z,100114.88
2023-04-02T21:52:53.064Z,100109.19
2023-04-02T21:55:19.695Z,100111.09
2023-04-02T21:57:47.632Z,100118.34
2023-04-02T22:00:15.059Z,100121.59
2023-04-02T22:02:41.711Z,100118.06
2023-04-02T22:05:11.089Z,100118.06
2023-04-02T22:07:37.649Z,100131.28
2023-04-02T22:10:04.841Z,100129.41
2023-04-02T22:12:31.456Z,100126.16
2023-04-02T22:14:59.402Z,100122.91
2023-04-02T22:17:26.017Z,100131.75
2023-04-02T22:19:52.604Z,100134.41
2023-04-02T22:22:19.291Z,100131.72
2023-04-02T22:24:45.928Z,100126.59
2023-04-02T22:27:12.469Z,100136.28
2023-04-02T22:29:39.053Z,100142.47
2023-04-02T22:32:07.029Z,100140.03
2023-04-02T22:34:33.642Z,100139.22
2023-04-02T22:37:00.224Z,100151.31
2023-04-02T22:39:26.929Z,100149.13
2023-04-02T22:41:53.694Z,100152.34
2023-04-02T22:44:20.293Z,100157.47
2023-04-02T22:46:46.941Z,100152.59
2023-04-02T22:49:15.269Z,100157.41
2023-04-02T22:51:42.725Z,100160.38
2023-04-02T22:54:10.043Z,100166.81
2023-04-02T22:56:36.626Z,100159.56
2023-04-02T22:59:03.249Z,100169.50
2023-04-02T23:01:32.738Z,100160.91
2023-04-02T23:03:59.857Z,100163.88
2023-04-02T23:06:28.541Z,100157.91
2023-04-02T23:08:55.180Z,100167.91
2023-04-02T23:11:23.563Z,100170.84
2023-04-02T23:13:52.525Z,100171.59
2023-04-02T23:16:20.115Z,100175.94
2023-04-02T23:18:47.085Z,100172.16
2023-04-02T23:21:14.115Z,100173.78
2023-04-02T23:23:43.248Z,100173.47
2023-04-02T23:26:12.015Z,100176.72
2023-04-02T23:28:39.577Z,100183.69
2023-04-02T23:31:08.434Z,100181.78
2023-04-02T23:33:35.561Z,100175.78
2023-04-02T23:36:07.038Z,100177.56
2023-04-02T23:38:33.725Z,100175.59
2023-04-02T23:41:01.793Z,100177.34
2023-04-02T23:43:28.314Z,100181.56
2023-04-02T23:45:55.050Z,100177.94
2023-04-02T23:48:21.664Z,100178.13
2023-04-02T23:50:48.345Z,100186.31
2023-04-02T23:53:15.308Z,100190.03
2023-04-02T23:55:42.153Z,100187.00
2023-04-02T23:58:10.333Z,100185.28
